Time;durP1;ratioP1;P1;durP2;ratioP2;P2;SDS_P1;SDS_P2;PMS_P1;PMS_P2;Temp;Humidity;BMP_temperature;BMP_pressure;BME280_temperature;BME280_humidity;BME280_pressure;Samples;Min_cycle;Max_cycle;Signal;HPM_P1;HPM_P2
2023/10/14 00:02:06;;;;;;;3.43;2.50;;;19.00;27.00;;;;;;10354986;28;20230;-76
2023/10/14 00:07:17;;;;;;;2.77;2.50;;;19.00;27.00;;;;;;10365484;28;20296;-76
2023/10/14 00:12:21;;;;;;;2.97;2.53;;;19.10;26.90;;;;;;10393680;28;20234;-76
2023/10/14 00:17:26;;;;;;;3.63;2.87;;;19.00;26.70;;;;;;10395722;28;20312;-76
2023/10/14 00:22:30;;;;;;;5.13;2.80;;;18.90;26.80;;;;;;10396873;28;20728;-76
2023/10/14 00:27:34;;;;;;;3.10;2.40;;;18.80;27.00;;;;;;10380047;28;20232;-76
2023/10/14 00:32:38;;;;;;;4.20;2.50;;;18.70;27.10;;;;;;10400190;28;20249;-76
2023/10/14 00:37:47;;;;;;;2.87;2.60;;;18.70;27.20;;;;;;10392582;28;20995;-76
2023/10/14 00:42:52;;;;;;;3.83;2.60;;;18.60;27.30;;;;;;10386959;28;20226;-76
2023/10/14 00:47:56;;;;;;;5.73;2.80;;;18.70;27.30;;;;;;10392671;28;20221;-75
2023/10/14 00:53:05;;;;;;;4.67;3.00;;;18.70;27.30;;;;;;10347133;28;20234;-76
2023/10/14 00:58:12;;;;;;;3.80;2.70;;;18.70;27.50;;;;;;10349324;28;20620;-76
2023/10/14 01:03:16;;;;;;;3.40;2.53;;;18.70;27.30;;;;;;10348618;28;20219;-76
2023/10/14 01:08:22;;;;;;;3.53;2.60;;;18.80;27.40;;;;;;10347631;28;20747;-77
2023/10/14 01:13:27;;;;;;;3.23;2.70;;;18.80;27.40;;;;;;10345373;28;20741;-77
2023/10/14 01:18:34;;;;;;;2.90;2.57;;;18.90;27.30;;;;;;10350161;28;20669;-77
2023/10/14 01:23:42;;;;;;;3.83;2.60;;;18.90;27.40;;;;;;10347238;28;20294;-77
2023/10/14 01:28:58;;;;;;;3.87;2.67;;;18.90;27.40;;;;;;10341971;28;20717;-77
2023/10/14 01:34:05;;;;;;;3.77;2.60;;;18.90;27.50;;;;;;10340704;28;20232;-76
2023/10/14 01:39:13;;;;;;;4.47;2.70;;;18.90;27.50;;;;;;10388815;28;20217;-76
2023/10/14 01:44:22;;;;;;;5.63;2.60;;;19.10;27.90;;;;;;10384297;28;20232;-75
2023/10/14 01:49:27;;;;;;;4.13;2.90;;;19.30;27.90;;;;;;10394237;28;20250;-76
2023/10/14 01:54:32;;;;;;;6.00;2.80;;;19.80;28.00;;;;;;10392416;28;20268;-76
2023/10/14 01:59:35;;;;;;;3.60;3.10;;;20.30;27.70;;;;;;10389105;28;20404;-76
2023/10/14 02:04:39;;;;;;;3.90;2.97;;;20.90;27.40;;;;;;10395413;28;20240;-76
2023/10/14 02:09:44;;;;;;;3.63;2.93;;;21.30;26.90;;;;;;10390409;28;20743;-75
2023/10/14 02:14:57;;;;;;;4.60;3.10;;;21.70;26.50;;;;;;10388925;28;20470;-75
2023/10/14 02:20:09;;;;;;;5.47;2.80;;;22.00;26.70;;;;;;10379663;28;20305;-75
2023/10/14 02:25:15;;;;;;;5.37;2.90;;;22.20;26.80;;;;;;10352798;28;20721;-75
2023/10/14 02:30:18;;;;;;;3.00;2.70;;;22.30;26.60;;;;;;10385356;28;20278;-77
2023/10/14 02:35:23;;;;;;;4.87;3.20;;;22.50;26.20;;;;;;10383845;28;20265;-78
2023/10/14 02:40:28;;;;;;;3.40;3.07;;;22.60;26.00;;;;;;10389099;28;20842;-76
2023/10/14 02:45:33;;;;;;;3.60;2.83;;;22.60;25.70;;;;;;10386233;28;20230;-76
2023/10/14 02:50:37;;;;;;;4.10;2.90;;;22.70;25.70;;;;;;10381022;28;20240;-76
2023/10/14 02:55:53;;;;;;;2.87;2.63;;;22.80;25.70;;;;;;10397233;28;20230;-75
2023/10/14 03:00:59;;;;;;;4.40;3.00;;;22.80;25.30;;;;;;10393658;28;20239;-76
2023/10/14 03:06:06;;;;;;;4.90;3.30;;;22.80;25.60;;;;;;10400394;28;20871;-76
2023/10/14 03:11:16;;;;;;;4.30;2.97;;;22.80;25.60;;;;;;10396120;28;20711;-76
2023/10/14 03:16:19;;;;;;;3.20;2.90;;;22.80;25.60;;;;;;10396372;28;20588;-76
2023/10/14 03:21:31;;;;;;;3.40;2.90;;;22.80;25.60;;;;;;10395602;28;20242;-75
2023/10/14 03:26:37;;;;;;;3.77;3.10;;;22.80;25.60;;;;;;10396020;28;20225;-75
2023/10/14 03:31:44;;;;;;;3.53;2.97;;;22.70;25.60;;;;;;10398642;28;20249;-75
2023/10/14 03:36:50;;;;;;;5.83;3.27;;;22.60;25.70;;;;;;10400139;28;20654;-75
2023/10/14 03:41:55;;;;;;;4.37;3.07;;;22.60;25.80;;;;;;10398199;28;20316;-75
2023/10/14 03:47:00;;;;;;;3.33;3.03;;;22.60;25.90;;;;;;10407832;28;20298;-76
2023/10/14 03:52:10;;;;;;;3.27;2.97;;;22.50;26.00;;;;;;10401530;28;20279;-76
2023/10/14 03:57:17;;;;;;;3.70;2.90;;;22.60;26.00;;;;;;10394924;28;20304;-76
2023/10/14 04:02:24;;;;;;;4.17;3.37;;;22.60;26.10;;;;;;10403818;28;20300;-76
2023/10/14 04:07:29;;;;;;;7.80;3.57;;;22.60;26.10;;;;;;10397363;28;20229;-76
2023/10/14 04:12:37;;;;;;;3.80;3.30;;;22.60;26.20;;;;;;10393895;28;20599;-76
2023/10/14 04:17:46;;;;;;;4.43;3.50;;;22.60;26.40;;;;;;10392556;28;20867;-78
2023/10/14 04:22:53;;;;;;;6.27;3.37;;;22.60;26.50;;;;;;10392107;28;20854;-78
2023/10/14 04:33:22;;;;;;;3.70;3.40;;;22.60;26.70;;;;;;10396744;28;20222;-76
2023/10/14 04:38:38;;;;;;;4.90;3.60;;;22.60;26.60;;;;;;10398034;28;20233;-76
2023/10/14 04:44:02;;;;;;;3.50;3.20;;;22.60;26.70;;;;;;10393576;28;20711;-75
2023/10/14 04:49:08;;;;;;;4.07;3.47;;;22.60;26.80;;;;;;10381786;28;20230;-76
2023/10/14 04:54:15;;;;;;;3.90;3.37;;;22.60;26.80;;;;;;10364957;28;20234;-76
2023/10/14 04:59:24;;;;;;;4.27;3.37;;;22.60;27.00;;;;;;10389762;28;20268;-76
2023/10/14 05:04:30;;;;;;;4.30;3.37;;;22.60;27.10;;;;;;10355760;28;20229;-75
2023/10/14 05:09:39;;;;;;;4.97;3.17;;;22.60;27.10;;;;;;10372367;28;20234;-76
2023/10/14 05:14:45;;;;;;;5.17;3.37;;;22.60;27.10;;;;;;10382944;28;20234;-76
2023/10/14 05:19:54;;;;;;;4.43;3.40;;;22.60;27.10;;;;;;10388234;28;20229;-76
2023/10/14 05:25:03;;;;;;;5.87;4.03;;;22.70;27.10;;;;;;10385547;28;20279;-76
2023/10/14 05:30:09;;;;;;;5.80;3.70;;;22.60;27.10;;;;;;10385239;28;20711;-76
2023/10/14 05:35:12;;;;;;;3.40;3.07;;;22.60;27.10;;;;;;10366932;28;20244;-75
2023/10/14 05:40:21;;;;;;;4.50;3.50;;;22.70;27.10;;;;;;10371103;28;20299;-75
2023/10/14 05:45:31;;;;;;;5.10;3.50;;;22.70;27.40;;;;;;10381171;28;20752;-75
2023/10/14 05:50:35;;;;;;;4.77;3.50;;;22.70;28.30;;;;;;10391596;28;20231;-74
2023/10/14 05:55:39;;;;;;;5.37;3.40;;;22.70;28.20;;;;;;10390942;28;20612;-74
2023/10/14 06:00:44;;;;;;;5.87;3.47;;;22.70;28.20;;;;;;10370387;28;21087;-76
2023/10/14 06:05:47;;;;;;;6.27;3.67;;;22.80;28.60;;;;;;10358750;28;20241;-75
2023/10/14 06:10:53;;;;;;;4.10;3.70;;;22.80;28.60;;;;;;10348442;28;20355;-75
2023/10/14 06:16:00;;;;;;;6.37;3.97;;;22.80;28.60;;;;;;10355484;28;20300;-75
2023/10/14 06:21:05;;;;;;;5.77;3.70;;;22.80;28.90;;;;;;10381692;28;20229;-75
2023/10/14 06:26:11;;;;;;;3.93;3.63;;;22.80;28.80;;;;;;10392857;28;20236;-75
2023/10/14 06:31:18;;;;;;;6.30;3.90;;;22.90;28.80;;;;;;10391768;28;20292;-76
2023/10/14 06:36:24;;;;;;;5.87;3.60;;;22.90;29.20;;;;;;10388197;28;20241;-77
2023/10/14 06:41:29;;;;;;;8.50;4.10;;;22.90;29.10;;;;;;10393449;28;20229;-76
2023/10/14 06:46:33;;;;;;;4.87;3.77;;;22.90;29.20;;;;;;10385781;28;20789;-76
2023/10/14 06:51:37;;;;;;;5.33;4.10;;;22.80;29.70;;;;;;10378101;28;20237;-77
2023/10/14 06:56:44;;;;;;;5.63;3.70;;;22.80;29.70;;;;;;10390155;28;20715;-77
2023/10/14 07:01:49;;;;;;;3.83;3.50;;;22.90;29.70;;;;;;10389335;28;20317;-77
2023/10/14 07:06:52;;;;;;;5.13;3.70;;;22.80;30.00;;;;;;10351167;28;21020;-78
2023/10/14 07:11:59;;;;;;;3.67;3.30;;;22.80;29.80;;;;;;10354476;28;20234;-77
2023/10/14 07:17:03;;;;;;;5.10;3.67;;;22.80;29.90;;;;;;10341030;28;20314;-77
2023/10/14 07:22:07;;;;;;;4.63;3.47;;;22.80;30.40;;;;;;10341384;28;20238;-77
2023/10/14 07:27:11;;;;;;;5.07;3.33;;;22.80;30.00;;;;;;10349653;28;20228;-75
2023/10/14 07:32:16;;;;;;;5.17;3.53;;;22.80;30.20;;;;;;10348376;28;20884;-75
2023/10/14 07:37:20;;;;;;;5.47;3.40;;;22.70;30.40;;;;;;10343210;28;20226;-76
2023/10/14 07:42:23;;;;;;;3.63;3.10;;;22.70;30.30;;;;;;10361056;28;20242;-76
2023/10/14 07:47:29;;;;;;;5.97;3.50;;;22.60;30.50;;;;;;10343773;28;20834;-73
2023/10/14 07:52:33;;;;;;;3.80;3.43;;;22.60;30.90;;;;;;10351986;28;20223;-73
2023/10/14 07:57:40;;;;;;;4.97;3.40;;;22.60;30.60;;;;;;10352674;28;20720;-74
2023/10/14 08:02:44;;;;;;;4.30;3.30;;;22.60;30.70;;;;;;10351847;28;20230;-77
2023/10/14 08:07:48;;;;;;;6.57;3.60;;;22.70;31.10;;;;;;10348151;28;20329;-75
2023/10/14 08:12:53;;;;;;;5.10;3.43;;;22.60;30.80;;;;;;10349270;28;20233;-74
2023/10/14 08:18:00;;;;;;;5.33;3.40;;;22.70;31.20;;;;;;10355315;28;20241;-74
2023/10/14 08:23:09;;;;;;;5.17;3.67;;;22.70;31.30;;;;;;10362615;28;20814;-74
2023/10/14 08:28:12;;;;;;;4.00;3.60;;;22.70;31.10;;;;;;10364851;28;20284;-74
2023/10/14 08:33:18;;;;;;;3.30;3.00;;;22.70;31.00;;;;;;10361930;28;20311;-73
2023/10/14 08:38:23;;;;;;;7.47;3.40;;;22.80;31.50;;;;;;10362694;28;20238;-75
2023/10/14 08:43:30;;;;;;;3.93;3.10;;;22.80;31.30;;;;;;10354792;28;20233;-73
2023/10/14 08:48:37;;;;;;;3.77;3.20;;;22.80;31.40;;;;;;10385411;28;20276;-74
2023/10/14 08:53:43;;;;;;;4.37;3.27;;;22.80;31.90;;;;;;10391848;28;20265;-74
2023/10/14 08:58:49;;;;;;;5.73;3.43;;;22.70;31.80;;;;;;10382587;28;20230;-73
2023/10/14 09:03:53;;;;;;;3.80;3.50;;;22.70;31.60;;;;;;10350708;28;20277;-71
2023/10/14 09:08:57;;;;;;;4.17;3.23;;;22.80;32.10;;;;;;10348575;28;20234;-76
2023/10/14 09:14:10;;;;;;;3.80;3.00;;;22.80;31.80;;;;;;10364704;28;20244;-74
2023/10/14 09:19:15;;;;;;;4.00;3.27;;;22.80;32.40;;;;;;10349426;28;20272;-74
2023/10/14 09:24:20;;;;;;;4.53;3.63;;;22.80;32.10;;;;;;10353898;28;20231;-71
2023/10/14 09:29:23;;;;;;;6.27;3.43;;;22.80;32.10;;;;;;10341616;28;20254;-75
2023/10/14 09:34:30;;;;;;;5.37;3.33;;;22.70;31.90;;;;;;10339923;28;20237;-74
2023/10/14 09:39:38;;;;;;;5.33;3.60;;;22.70;32.30;;;;;;10331296;28;20230;-74
2023/10/14 09:44:43;;;;;;;5.33;3.77;;;22.70;32.30;;;;;;10345884;28;20493;-75
2023/10/14 09:49:48;;;;;;;4.83;3.87;;;22.70;32.30;;;;;;10362025;28;20244;-74
2023/10/14 09:54:54;;;;;;;5.17;3.30;;;22.70;32.50;;;;;;10387185;28;20842;-74
2023/10/14 09:59:58;;;;;;;5.03;3.47;;;22.80;33.10;;;;;;10368658;28;20907;-75
2023/10/14 10:05:06;;;;;;;3.50;3.20;;;22.80;32.30;;;;;;10381342;28;20226;-75
2023/10/14 10:10:15;;;;;;;6.60;3.80;;;22.90;32.70;;;;;;10371831;28;20221;-75
2023/10/14 10:15:20;;;;;;;6.13;3.37;;;23.00;32.80;;;;;;10364164;28;20775;-76
2023/10/14 10:20:30;;;;;;;4.00;3.57;;;23.10;32.30;;;;;;10383958;28;20241;-75
2023/10/14 10:25:49;;;;;;;5.50;3.77;;;23.10;32.70;;;;;;10377848;28;20229;-75
2023/10/14 10:30:53;;;;;;;5.53;3.53;;;23.10;32.70;;;;;;10382444;28;20238;-74
2023/10/14 10:36:03;;;;;;;6.00;3.70;;;23.20;32.70;;;;;;10388266;28;20236;-74
2023/10/14 10:41:19;;;;;;;5.17;3.90;;;23.30;32.70;;;;;;10342175;28;20309;-74
2023/10/14 10:46:41;;;;;;;7.13;4.67;;;23.40;32.90;;;;;;10350309;28;22127;-75
2023/10/14 10:52:12;;;;;;;5.83;3.57;;;23.50;32.60;;;;;;10345766;28;20311;-75
2023/10/14 10:57:16;;;;;;;5.50;3.80;;;23.60;32.20;;;;;;10345184;28;20222;-76
2023/10/14 11:02:20;;;;;;;7.47;3.70;;;23.60;31.90;;;;;;10344663;28;21024;-76
2023/10/14 11:07:27;;;;;;;4.13;3.60;;;23.70;32.10;;;;;;10349502;28;20229;-76
2023/10/14 11:12:36;;;;;;;5.80;3.63;;;23.70;32.00;;;;;;10350222;28;20226;-76
2023/10/14 11:17:39;;;;;;;4.70;3.63;;;23.90;32.00;;;;;;10364353;28;20275;-77
2023/10/14 11:22:45;;;;;;;4.27;3.70;;;24.00;31.80;;;;;;10364660;28;20654;-73
2023/10/14 11:27:48;;;;;;;4.37;3.30;;;24.10;31.30;;;;;;10351499;28;20308;-73
2023/10/14 11:32:52;;;;;;;3.87;3.40;;;24.20;31.50;;;;;;10386388;28;20237;-73
2023/10/14 11:38:00;;;;;;;5.30;3.40;;;24.30;31.40;;;;;;10395042;28;20608;-73
2023/10/14 11:43:05;;;;;;;3.53;3.10;;;24.50;30.80;;;;;;10384117;28;20248;-74
2023/10/14 11:48:20;;;;;;;8.90;3.30;;;24.50;30.70;;;;;;10390507;28;20233;-74
2023/10/14 11:53:27;;;;;;;4.83;3.40;;;24.50;30.30;;;;;;10376615;28;20233;-74
2023/10/14 11:58:32;;;;;;;5.20;3.07;;;24.50;30.20;;;;;;10391924;28;20249;-73
2023/10/14 12:03:36;;;;;;;4.10;2.87;;;24.50;30.10;;;;;;10398708;28;20233;-73
2023/10/14 12:08:42;;;;;;;4.40;2.97;;;24.50;30.20;;;;;;10395303;28;20229;-74
2023/10/14 12:13:45;;;;;;;4.23;3.10;;;24.50;30.20;;;;;;10398772;28;20332;-74
2023/10/14 12:18:58;;;;;;;2.47;2.23;;;24.40;30.50;;;;;;10399144;28;20233;-74
2023/10/14 12:24:04;;;;;;;4.77;2.13;;;24.30;30.80;;;;;;10360507;28;20264;-73
2023/10/14 12:29:11;;;;;;;2.83;2.00;;;24.00;31.20;;;;;;10344227;28;20230;-74
2023/10/14 12:34:15;;;;;;;3.67;2.40;;;23.60;31.20;;;;;;10360583;28;20594;-74
2023/10/14 12:39:26;;;;;;;2.00;1.80;;;23.40;31.70;;;;;;10388943;28;20228;-74
2023/10/14 12:44:32;;;;;;;1.47;1.27;;;23.20;33.60;;;;;;10367703;28;20234;-74
2023/10/14 12:49:37;;;;;;;2.07;1.10;;;22.90;32.90;;;;;;10391607;28;20241;-75
2023/10/14 12:54:45;;;;;;;1.33;0.87;;;22.60;33.50;;;;;;10388943;28;20234;-74
2023/10/14 12:59:49;;;;;;;0.70;0.70;;;22.30;34.50;;;;;;10390569;28;20783;-73
2023/10/14 13:04:52;;;;;;;1.23;0.80;;;22.00;34.00;;;;;;10352576;28;20234;-72
2023/10/14 13:09:57;;;;;;;0.80;0.60;;;21.70;34.20;;;;;;10384699;28;20225;-72
2023/10/14 13:15:04;;;;;;;1.10;0.77;;;21.50;35.80;;;;;;10365194;28;20767;-72
2023/10/14 13:20:09;;;;;;;2.03;0.80;;;21.40;35.20;;;;;;10386889;28;20272;-73
2023/10/14 13:25:17;;;;;;;1.40;0.80;;;21.10;35.70;;;;;;10387377;28;20217;-73
2023/10/14 13:30:25;;;;;;;0.50;0.50;;;21.00;36.70;;;;;;10360702;28;20325;-74
2023/10/14 13:35:31;;;;;;;0.47;0.47;;;20.90;36.50;;;;;;10343946;28;20226;-74
2023/10/14 13:40:37;;;;;;;0.47;0.47;;;20.80;36.10;;;;;;10372671;28;20234;-74
2023/10/14 13:45:44;;;;;;;1.00;0.63;;;20.80;37.20;;;;;;10388646;28;20229;-74
2023/10/14 13:50:54;;;;;;;0.80;0.60;;;20.90;36.60;;;;;;10386577;28;20233;-74
2023/10/14 13:55:59;;;;;;;1.13;0.70;;;20.90;36.80;;;;;;10387453;28;20855;-74
2023/10/14 14:01:08;;;;;;;0.70;0.50;;;20.70;37.20;;;;;;10393004;28;20221;-73
2023/10/14 14:06:11;;;;;;;2.10;0.50;;;20.70;37.90;;;;;;10391822;28;20236;-73
2023/10/14 14:11:16;;;;;;;0.87;0.50;;;20.70;37.10;;;;;;10397223;28;20233;-73
2023/10/14 14:16:20;;;;;;;0.60;0.60;;;20.80;37.20;;;;;;10395773;28;20226;-74
2023/10/14 14:21:23;;;;;;;1.00;0.70;;;20.70;37.10;;;;;;10394651;28;20238;-76
2023/10/14 14:26:29;;;;;;;1.10;0.50;;;20.70;37.10;;;;;;10392379;28;20217;-76
2023/10/14 14:31:32;;;;;;;0.83;0.60;;;20.70;37.10;;;;;;10391966;28;20226;-77
2023/10/14 14:36:36;;;;;;;0.60;0.60;;;20.70;37.00;;;;;;10398654;28;20949;-78
2023/10/14 14:41:43;;;;;;;0.97;0.60;;;20.60;36.70;;;;;;10394103;28;20803;-74
2023/10/14 14:46:46;;;;;;;0.83;0.60;;;20.60;37.00;;;;;;10386732;28;20226;-74
2023/10/14 14:51:51;;;;;;;0.40;0.40;;;20.50;37.40;;;;;;10390682;28;20236;-74
2023/10/14 14:56:55;;;;;;;0.63;0.63;;;20.40;36.90;;;;;;10387651;28;20312;-73
2023/10/14 15:02:01;;;;;;;0.70;0.40;;;20.30;37.00;;;;;;10384014;28;20244;-74
2023/10/14 15:07:05;;;;;;;0.50;0.50;;;20.20;36.70;;;;;;10379903;28;20677;-74
2023/10/14 15:12:11;;;;;;;1.00;0.50;;;20.10;36.60;;;;;;10387601;28;20229;-74
2023/10/14 15:17:14;;;;;;;0.43;0.43;;;20.00;37.60;;;;;;10379361;28;20291;-73
2023/10/14 15:22:18;;;;;;;0.60;0.60;;;19.90;36.80;;;;;;10380178;28;20242;-73
2023/10/14 15:27:23;;;;;;;0.50;0.50;;;19.90;37.10;;;;;;10386517;28;20223;-74
2023/10/14 15:32:26;;;;;;;1.07;0.60;;;19.80;37.90;;;;;;10396228;28;20229;-74
2023/10/14 15:37:30;;;;;;;0.70;0.70;;;19.70;37.40;;;;;;10367951;28;20231;-74
2023/10/14 15:42:34;;;;;;;1.90;1.73;;;19.60;37.80;;;;;;10344488;28;20246;-74
2023/10/14 15:47:38;;;;;;;1.53;1.30;;;19.60;38.90;;;;;;10349246;28;20218;-74
2023/10/14 15:52:43;;;;;;;1.07;0.93;;;19.50;38.10;;;;;;10355872;28;20243;-74
2023/10/14 15:57:49;;;;;;;0.87;0.87;;;19.60;39.00;;;;;;10352316;28;20234;-74
2023/10/14 16:02:53;;;;;;;0.80;0.80;;;19.60;39.20;;;;;;10392834;28;20233;-74
2023/10/14 16:07:59;;;;;;;0.70;0.70;;;19.60;38.40;;;;;;10385086;28;20377;-75
2023/10/14 16:13:05;;;;;;;1.13;0.60;;;19.60;38.80;;;;;;10387166;28;20229;-73
2023/10/14 16:18:11;;;;;;;0.90;0.70;;;19.60;39.30;;;;;;10396168;28;20265;-73
2023/10/14 16:23:17;;;;;;;1.63;0.77;;;19.60;38.60;;;;;;10385036;28;20218;-73
2023/10/14 16:28:22;;;;;;;1.50;0.90;;;19.50;38.40;;;;;;10383336;28;20253;-74
2023/10/14 16:33:25;;;;;;;0.70;0.70;;;19.40;39.40;;;;;;10394856;28;20304;-73
2023/10/14 16:38:28;;;;;;;0.50;0.50;;;19.30;38.80;;;;;;10385151;28;20321;-72
2023/10/14 16:43:33;;;;;;;0.70;0.70;;;19.30;38.80;;;;;;10383186;28;20817;-74
2023/10/14 16:48:37;;;;;;;1.03;0.80;;;19.20;38.70;;;;;;10382105;28;20257;-74
2023/10/14 16:53:41;;;;;;;0.67;0.67;;;18.90;38.20;;;;;;10383243;28;20252;-75
2023/10/14 16:58:46;;;;;;;1.73;1.00;;;18.70;38.40;;;;;;10385376;28;20324;-75
2023/10/14 17:03:49;;;;;;;1.00;0.90;;;18.40;38.90;;;;;;10378748;28;20726;-74
2023/10/14 17:08:53;;;;;;;1.10;1.00;;;18.20;38.70;;;;;;10386851;28;20669;-74
2023/10/14 17:13:59;;;;;;;0.83;0.80;;;18.00;38.70;;;;;;10386578;28;20728;-72
2023/10/14 17:19:02;;;;;;;1.27;1.00;;;17.90;39.40;;;;;;10387193;28;20237;-75
2023/10/14 17:24:07;;;;;;;1.50;1.20;;;17.90;38.90;;;;;;10398765;28;20229;-74
2023/10/14 17:29:12;;;;;;;1.50;1.33;;;17.90;39.80;;;;;;10390277;28;20230;-75
2023/10/14 17:34:15;;;;;;;1.30;1.20;;;17.90;39.50;;;;;;10380474;28;20229;-74
2023/10/14 17:39:21;;;;;;;2.00;1.00;;;17.90;39.00;;;;;;10384121;28;21034;-75
2023/10/14 17:44:27;;;;;;;1.63;1.20;;;17.90;39.00;;;;;;10375466;28;20242;-74
2023/10/14 17:49:31;;;;;;;1.30;1.17;;;17.80;39.50;;;;;;10390830;28;20776;-72
2023/10/14 17:54:34;;;;;;;2.50;1.50;;;17.90;39.30;;;;;;10375707;28;20249;-74
2023/10/14 17:59:38;;;;;;;2.03;1.17;;;17.90;39.20;;;;;;10375676;28;20232;-75
2023/10/14 18:04:42;;;;;;;1.40;1.30;;;17.80;39.70;;;;;;10399658;28;20738;-74
2023/10/14 18:09:45;;;;;;;1.27;1.17;;;17.80;39.00;;;;;;10390781;28;20256;-73
2023/10/14 18:14:50;;;;;;;1.43;1.23;;;17.70;39.20;;;;;;10393563;28;21081;-73
2023/10/14 18:19:53;;;;;;;2.67;1.40;;;17.60;39.40;;;;;;10392779;28;20245;-74
2023/10/14 18:24:57;;;;;;;1.93;1.50;;;17.40;38.70;;;;;;10387111;28;20233;-73
2023/10/14 18:30:02;;;;;;;2.47;1.43;;;17.30;38.90;;;;;;10389815;28;20325;-73
2023/10/14 18:35:05;;;;;;;1.90;1.70;;;17.20;39.30;;;;;;10389913;28;20782;-73
2023/10/14 18:40:13;;;;;;;1.67;1.57;;;17.10;38.90;;;;;;10388596;28;20717;-74
2023/10/14 18:45:19;;;;;;;3.17;1.80;;;17.00;38.90;;;;;;10382952;28;20320;-74
2023/10/14 18:50:24;;;;;;;3.03;1.80;;;16.80;39.30;;;;;;10391301;28;20233;-73
2023/10/14 18:55:28;;;;;;;1.90;1.57;;;16.60;38.90;;;;;;10382160;28;20707;-74
2023/10/14 19:00:36;;;;;;;2.43;1.60;;;16.60;38.90;;;;;;10385772;28;20812;-73
2023/10/14 19:05:41;;;;;;;3.27;1.70;;;16.50;39.40;;;;;;10384408;28;20237;-73
2023/10/14 19:10:48;;;;;;;7.50;2.03;;;16.50;38.70;;;;;;10375485;28;20236;-73
2023/10/14 19:15:53;;;;;;;3.37;1.90;;;16.40;38.60;;;;;;10380254;28;20222;-73
2023/10/14 19:21:01;;;;;;;2.50;1.73;;;16.30;38.70;;;;;;10382202;28;20750;-75
2023/10/14 19:26:04;;;;;;;3.13;1.73;;;16.20;38.40;;;;;;10375386;28;20222;-75
2023/10/14 19:31:11;;;;;;;2.93;1.80;;;16.10;38.60;;;;;;10381940;28;20233;-74
2023/10/14 19:36:16;;;;;;;4.17;2.13;;;16.00;38.80;;;;;;10393906;28;20275;-74
2023/10/14 19:41:19;;;;;;;3.57;2.10;;;15.90;38.70;;;;;;10383270;28;20311;-74
2023/10/14 19:46:24;;;;;;;2.43;1.70;;;15.80;38.70;;;;;;10345791;28;20675;-73
2023/10/14 19:51:29;;;;;;;2.93;1.90;;;15.70;38.90;;;;;;10341011;28;20254;-73
2023/10/14 19:56:32;;;;;;;3.53;2.10;;;15.60;38.90;;;;;;10345040;28;20237;-73
2023/10/14 20:01:38;;;;;;;3.03;1.80;;;15.50;38.80;;;;;;10350553;28;20266;-73
2023/10/14 20:06:42;;;;;;;3.13;1.90;;;15.50;39.00;;;;;;10342981;28;20222;-73
2023/10/14 20:11:46;;;;;;;2.40;1.93;;;15.50;38.70;;;;;;10340825;28;21465;-73
2023/10/14 20:16:51;;;;;;;2.80;1.97;;;15.40;38.80;;;;;;10344925;28;21108;-73
2023/10/14 20:21:54;;;;;;;3.83;2.00;;;15.40;39.00;;;;;;10361179;28;20238;-73
2023/10/14 20:26:57;;;;;;;3.37;2.00;;;15.30;38.60;;;;;;10346519;28;20716;-73
2023/10/14 20:32:02;;;;;;;4.37;1.97;;;15.40;38.60;;;;;;10355117;28;20650;-73
2023/10/14 20:37:05;;;;;;;2.87;1.80;;;15.40;38.60;;;;;;10342795;28;20302;-74
2023/10/14 20:42:09;;;;;;;4.23;1.93;;;15.40;38.60;;;;;;10346612;28;20602;-75
2023/10/14 20:47:13;;;;;;;5.90;2.43;;;15.40;38.40;;;;;;10376103;28;20720;-75
2023/10/14 20:52:17;;;;;;;3.33;1.90;;;15.40;38.50;;;;;;10385457;28;20232;-74
2023/10/14 20:57:21;;;;;;;2.90;1.97;;;15.30;38.20;;;;;;10377445;28;20272;-73
2023/10/14 21:02:26;;;;;;;7.00;2.30;;;15.20;38.40;;;;;;10357283;28;20731;-74
2023/10/14 21:07:29;;;;;;;2.83;2.00;;;15.00;38.90;;;;;;10339588;28;20661;-73
2023/10/14 21:12:33;;;;;;;4.47;2.20;;;14.90;38.70;;;;;;10345488;28;20235;-73
2023/10/14 21:17:38;;;;;;;3.23;2.00;;;14.80;38.80;;;;;;10340931;28;20308;-73
2023/10/14 21:22:42;;;;;;;3.67;2.37;;;14.70;39.10;;;;;;10354865;28;20317;-73
2023/10/14 21:27:45;;;;;;;3.13;2.20;;;14.60;39.30;;;;;;10343666;28;20234;-74
2023/10/14 21:32:51;;;;;;;4.30;2.30;;;14.50;39.20;;;;;;10344960;28;20964;-74
2023/10/14 21:37:55;;;;;;;3.30;2.13;;;14.40;39.50;;;;;;10351039;28;20230;-75
2023/10/14 21:43:00;;;;;;;3.60;2.10;;;14.40;39.40;;;;;;10362591;28;20230;-74
2023/10/14 21:48:07;;;;;;;3.17;2.10;;;14.40;39.60;;;;;;10362623;28;20230;-74
2023/10/14 21:53:12;;;;;;;4.37;2.10;;;14.40;40.00;;;;;;10339244;28;20903;-75
2023/10/14 21:58:15;;;;;;;3.40;2.07;;;14.30;39.40;;;;;;10366560;28;20296;-74
2023/10/14 22:03:20;;;;;;;4.30;2.10;;;14.30;39.30;;;;;;10388227;28;20271;-74
2023/10/14 22:08:24;;;;;;;4.93;2.37;;;14.30;39.40;;;;;;10358605;28;20431;-74
2023/10/14 22:13:27;;;;;;;5.60;2.17;;;14.30;39.20;;;;;;10342940;28;20238;-75
2023/10/14 22:18:32;;;;;;;6.90;2.23;;;14.20;39.10;;;;;;10361809;28;20242;-74
2023/10/14 22:23:36;;;;;;;3.23;2.00;;;14.20;39.40;;;;;;10377342;28;20225;-75
2023/10/14 22:28:40;;;;;;;3.90;2.17;;;14.20;39.10;;;;;;10377868;28;20286;-73
2023/10/14 22:33:45;;;;;;;3.50;2.07;;;14.20;39.00;;;;;;10377372;28;20770;-73
2023/10/14 22:38:49;;;;;;;4.93;2.03;;;14.10;38.90;;;;;;10369232;28;20233;-74
2023/10/14 22:43:53;;;;;;;3.43;1.90;;;14.00;38.80;;;;;;10384221;28;20226;-73
2023/10/14 22:48:57;;;;;;;3.30;2.03;;;14.00;38.80;;;;;;10371913;28;20319;-74
2023/10/14 22:54:03;;;;;;;3.00;1.93;;;14.00;39.00;;;;;;10378085;28;20230;-73
2023/10/14 22:59:06;;;;;;;3.03;1.80;;;14.10;38.70;;;;;;10366843;28;20221;-75
2023/10/14 23:04:11;;;;;;;5.03;2.17;;;14.20;38.20;;;;;;10379594;28;20225;-75
2023/10/14 23:09:15;;;;;;;3.17;1.83;;;14.20;37.90;;;;;;10378475;28;20243;-75
2023/10/14 23:14:18;;;;;;;3.47;2.10;;;14.00;37.60;;;;;;10393110;28;20918;-75
2023/10/14 23:19:24;;;;;;;4.83;2.10;;;13.80;37.80;;;;;;10383471;28;20355;-74
2023/10/14 23:24:27;;;;;;;3.83;1.70;;;13.70;37.90;;;;;;10352791;28;20261;-74
2023/10/14 23:29:30;;;;;;;3.23;1.80;;;13.60;38.00;;;;;;10345489;28;20236;-74
2023/10/14 23:34:35;;;;;;;3.87;1.70;;;13.50;38.00;;;;;;10348033;28;20246;-75
2023/10/14 23:39:40;;;;;;;3.70;1.80;;;13.40;38.20;;;;;;10350575;28;20227;-75
2023/10/14 23:44:47;;;;;;;3.57;1.90;;;13.30;38.30;;;;;;10355679;28;20272;-74
2023/10/14 23:49:52;;;;;;;2.83;1.60;;;13.30;38.20;;;;;;10354074;28;21169;-74
2023/10/14 23:54:55;;;;;;;2.97;1.80;;;13.20;38.30;;;;;;10351815;28;20313;-74
